Nearby METAR Reports

 

EIDW - Dublin Airport, Ireland
Distance from station: ENE 79km
Updated: 05/07/2020 07:00
Partly cloudy
Partly cloudy
 Wind from W
Wind: W 22 km/h, Gust: 41 km/h
Temperature: 11°C
Dew Point: 8°C
Humidity: 82%
Barometer: 1006 hPa
Clouds: Partly cloudy
Visibility: 10 km
Cloud details: Few Clouds 549 m
Partly cloudy 1219 m
2020/07/05 06:00 EIDW 050600Z 26012G22KT 210V280 9999 FEW018 SCT040 11/08 Q1006 NOSIG
EIME - Casement (mil), Ireland
Distance from station: ENE 62km
Updated: 05/07/2020 07:00
Partly cloudy
Partly cloudy
 Wind from WSW
Wind: WSW 33 km/h
Temperature: 11°C
Dew Point: 8°C
Humidity: 82%
Barometer: 1006 hPa
Clouds: Partly cloudy
Visibility: 10 km
Cloud details: Few Clouds 610 m
Partly cloudy 1433 m
2020/07/05 06:00 EIME 050600Z 24018KT 9999 FEW020 SCT047 11/08 Q1006
EIWF - Waterford Arpt, Ireland
Distance from station: S 111km
Updated: 04/07/2020 21:00
NOT Current
Mist, Overcast
Mist, Overcast
 Wind from WSW
Wind: WSW 30 km/h, Gust: 50 km/h
Temperature: 14°C
Dew Point: 13°C
Humidity: 94%
Barometer: 1005 hPa
Summary: Mist
Clouds: Overcast
Visibility: 2 km
Cloud details: Overcast 30 m
2020/07/04 20:00 EIWF 042000Z 25016G27KT 230V300 1700 BR OVC001 14/13 Q1005
 
EINN - Shannon Airport, Ireland
Distance from station: WSW 117km
Updated: 05/07/2020 07:00
Light rain, Showers, Mostly cloudy
Light rain, Showers, Mostly cloudy
 Wind from WSW
Wind: WSW 31 km/h
Temperature: 13°C
Dew Point: 9°C
Humidity: 77%
Barometer: 1009 hPa
Summary: Light rain, Showers
Clouds: Mostly cloudy
Visibility: 10 km
Cloud details: Partly cloudy 549 m
Mostly cloudy 792 m
2020/07/05 06:00 EINN 050600Z 25017KT 9999 -SHRA SCT018CB BKN026 13/09 Q1009 NOSIG
EIKN - Connaught Apt, Ireland
Distance from station: NW 127km
Updated: 05/07/2020 07:00
Mostly cloudy
Mostly cloudy
 Wind from WSW
Wind: WSW 24 km/h, Gust: 43 km/h
Temperature: 10°C
Wind Chill: 7°C
Dew Point: 8°C
Humidity: 88%
Barometer: 1005 hPa
Clouds: Mostly cloudy
Visibility: 10 km
Cloud details: Partly cloudy 396 m
Partly cloudy 549 m
Mostly cloudy 884 m
2020/07/05 06:00 EIKN 050600Z 24013G23KT 220V280 9999 SCT013 SCT018CB BKN029 10/08 Q1005 NOSIG
EISG - Sligo Arpt, Ireland
Distance from station: NNW 148km
Updated: 04/07/2020 20:00
NOT Current
Overcast
Overcast
 Wind from S
Wind: S 13 km/h
Temperature: 14°C
Dew Point: 13°C
Humidity: 94%
Barometer: 997 hPa
Clouds: Overcast
Visibility: 9 km
Cloud details: Partly cloudy 335 m
Mostly cloudy 640 m
Overcast 1006 m
2020/07/04 19:00 EISG 041900Z 19007KT 150V220 9000 SCT011 BKN021 OVC033 14/13 Q0997
 
EICK - Cork Arpt/Corcai, Ireland
Distance from station: SSW 165km
Updated: 05/07/2020 07:00
Mostly cloudy
Mostly cloudy
 Wind from WSW
Wind: WSW 24 km/h
Temperature: 11°C
Dew Point: 7°C
Humidity: 77%
Barometer: 1011 hPa
Clouds: Mostly cloudy
Visibility: 10 km
Cloud details: Mostly cloudy 1372 m
2020/07/05 06:00 EICK 050600Z 25013KT 9999 BKN045 11/07 Q1011 NOSIG
EGAA - Belfast/Aldergro, United Kingdom
Distance from station: NNE 179km
Updated: 05/07/2020 06:50
Partly cloudy
Partly cloudy
 Wind from WSW
Wind: WSW 31 km/h
Temperature: 11°C
Dew Point: 9°C
Humidity: 88%
Barometer: 1002 hPa
Clouds: Partly cloudy
Visibility: 10 km
Cloud details: Few Clouds 579 m
Partly cloudy 762 m
2020/07/05 05:50 EGAA 050550Z 25017KT 9999 FEW019 SCT025 11/09 Q1002
EIKY - Kerry Arpt, Ireland
Distance from station: SW 182km
Updated: 04/07/2020 19:30
NOT Current
Rain, Overcast
Rain, Overcast
 Wind from SW
Wind: SW 39 km/h
Temperature: 16°C
Dew Point: 16°C
Humidity: 100%
Barometer: 1004 hPa
Summary: Rain
Clouds: Overcast
Visibility: 3 km
Cloud details: Partly cloudy 518 m
Overcast 671 m
2020/07/04 18:30 EIKY 041830Z 23021KT 3000 RA SCT017 OVC022 16/16 Q1004
 
EGAC - Belfast Harbour, United Kingdom
Distance from station: NNE 188km
Updated: 05/07/2020 06:50
Mostly cloudy
Mostly cloudy
 Wind from WSW
Wind: WSW 24 km/h
Temperature: 12°C
Dew Point: 8°C
Humidity: 77%
Barometer: 1002 hPa
Clouds: Mostly cloudy
Visibility: 10 km
Cloud details: Mostly cloudy 853 m
2020/07/05 05:50 EGAC 050550Z AUTO 25013KT 220V290 9999 BKN028/// 12/08 Q1002
EGOV - Valley Raf, United Kingdom
Distance from station: E 188km
Updated: 05/07/2020 06:50
Mostly cloudy
Mostly cloudy
 Wind from W
Wind: W 37 km/h
Temperature: 13°C
Dew Point: 9°C
Humidity: 77%
Barometer: 1006 hPa
Clouds: Mostly cloudy
Visibility: 10 km
Cloud details: Few Clouds 1128 m
Mostly cloudy 1341 m
2020/07/05 05:50 EGOV 050550Z AUTO 26020KT 9999 FEW037/// BKN044/// 13/09 Q1006
EGNS - Isle Of Man/Rona, United Kingdom
Distance from station: ENE 207km
Updated: 05/07/2020 06:50
Mostly cloudy
Mostly cloudy
 Wind from W
Wind: W 35 km/h
Temperature: 13°C
Dew Point: 9°C
Humidity: 77%
Barometer: 1003 hPa
Clouds: Mostly cloudy
Visibility: 10 km
Cloud details: Few Clouds 549 m
Mostly cloudy 1372 m
2020/07/05 05:50 EGNS 050550Z 26019KT 230V300 9999 FEW018 BKN045 13/09 Q1003